createdAt,value
2019-05-15T00:00:19.447Z,0.00
2019-05-15T00:01:19.482Z,0.00
2019-05-15T00:02:19.417Z,0.00
2019-05-15T00:03:19.810Z,0.00
2019-05-15T00:04:19.399Z,0.00
2019-05-15T00:05:19.391Z,0.00
2019-05-15T00:06:19.366Z,0.00
2019-05-15T00:07:19.365Z,0.00
2019-05-15T00:08:19.349Z,0.00
2019-05-15T00:09:19.387Z,0.00
2019-05-15T00:10:19.335Z,0.00
2019-05-15T00:11:19.472Z,0.00
2019-05-15T00:12:19.312Z,0.00
2019-05-15T00:13:19.296Z,0.00
2019-05-15T00:14:19.276Z,0.00
2019-05-15T00:15:19.283Z,0.00
2019-05-15T00:16:19.287Z,0.00
2019-05-15T00:17:19.349Z,0.00
2019-05-15T00:18:19.232Z,0.00
2019-05-15T00:19:19.220Z,0.00
2019-05-15T00:20:20.239Z,0.00
2019-05-15T00:21:19.199Z,0.00
2019-05-15T00:22:19.203Z,0.00
2019-05-15T00:23:19.177Z,0.00
2019-05-15T00:24:19.183Z,0.00
2019-05-15T00:25:19.166Z,0.00
2019-05-15T00:26:19.161Z,0.00
2019-05-15T00:27:20.243Z,0.00
2019-05-15T00:28:19.122Z,0.00
2019-05-15T00:29:19.936Z,0.00
2019-05-15T00:30:19.101Z,0.00
2019-05-15T00:31:19.101Z,0.00
2019-05-15T00:32:19.079Z,0.00
2019-05-15T00:33:19.421Z,0.00
2019-05-15T00:34:19.081Z,0.00
2019-05-15T00:35:19.047Z,0.00
2019-05-15T00:36:19.326Z,0.00
2019-05-15T00:37:19.026Z,0.00
2019-05-15T00:38:19.012Z,0.00
2019-05-15T00:39:19.146Z,0.00
2019-05-15T00:40:18.995Z,0.00
2019-05-15T00:41:18.986Z,0.00
2019-05-15T00:42:19.157Z,0.00
2019-05-15T00:43:18.970Z,0.00
2019-05-15T00:44:18.947Z,0.00
2019-05-15T00:45:18.940Z,0.00
2019-05-15T00:46:18.927Z,0.00
2019-05-15T00:47:18.944Z,0.00
2019-05-15T00:48:18.904Z,0.00
2019-05-15T00:49:19.055Z,0.00
2019-05-15T00:50:18.884Z,0.00
2019-05-15T00:51:19.674Z,0.00
2019-05-15T00:52:18.870Z,0.00
2019-05-15T00:53:19.670Z,0.00
2019-05-15T00:54:19.308Z,0.00
2019-05-15T00:55:19.231Z,0.00
2019-05-15T00:56:19.435Z,0.00
2019-05-15T00:57:19.364Z,0.00
2019-05-15T00:58:19.976Z,0.00
2019-05-15T00:59:26.247Z,0.00
2019-05-15T01:00:19.771Z,0.00
2019-05-15T01:01:19.298Z,0.00
2019-05-15T01:02:18.749Z,0.00
2019-05-15T01:03:18.742Z,0.00
2019-05-15T01:04:18.920Z,0.00
2019-05-15T01:05:18.744Z,0.00
2019-05-15T01:06:19.195Z,0.00
2019-05-15T01:07:18.931Z,0.00
2019-05-15T01:08:19.306Z,0.00
2019-05-15T01:09:18.854Z,0.00
2019-05-15T01:10:19.340Z,0.00
2019-05-15T01:11:19.210Z,0.00
2019-05-15T01:12:18.683Z,0.00
2019-05-15T01:13:19.114Z,0.00
2019-05-15T01:14:18.755Z,0.00
2019-05-15T01:15:18.620Z,0.00
2019-05-15T01:16:18.800Z,0.00
2019-05-15T01:17:18.652Z,0.00
2019-05-15T01:18:18.889Z,0.00
2019-05-15T01:19:18.674Z,0.00
2019-05-15T01:20:18.915Z,0.00
2019-05-15T01:21:18.867Z,0.00
2019-05-15T01:22:19.483Z,0.00
2019-05-15T01:23:18.822Z,0.00
2019-05-15T01:24:18.970Z,0.00
2019-05-15T01:25:18.698Z,0.00
2019-05-15T01:26:19.000Z,0.00
2019-05-15T01:27:18.606Z,0.00
2019-05-15T01:28:18.578Z,0.00
2019-05-15T01:29:18.452Z,0.00
2019-05-15T01:30:18.470Z,0.00
2019-05-15T01:31:19.063Z,0.00
2019-05-15T01:32:19.092Z,0.00
2019-05-15T01:33:19.017Z,0.00
2019-05-15T01:34:18.708Z,0.00
2019-05-15T01:35:18.391Z,0.00
2019-05-15T01:36:19.260Z,0.00
2019-05-15T01:37:18.889Z,0.00
2019-05-15T01:38:18.850Z,0.00
2019-05-15T01:39:18.604Z,0.00
2019-05-15T01:40:18.368Z,0.00
2019-05-15T01:41:18.887Z,0.00
2019-05-15T01:42:18.716Z,0.00
2019-05-15T01:43:18.881Z,0.00
2019-05-15T01:44:18.292Z,0.00
2019-05-15T01:45:18.937Z,0.00
2019-05-15T01:46:19.067Z,0.00
2019-05-15T01:47:18.926Z,0.00
2019-05-15T01:48:18.906Z,0.00
2019-05-15T01:49:18.704Z,0.00
2019-05-15T01:50:18.580Z,0.00
2019-05-15T01:51:18.568Z,0.00
2019-05-15T01:52:18.792Z,0.00
2019-05-15T01:53:18.681Z,0.00
2019-05-15T01:54:18.806Z,0.00
2019-05-15T01:55:18.273Z,0.00
2019-05-15T01:56:18.767Z,0.00
2019-05-15T01:57:18.268Z,0.00
2019-05-15T01:58:18.917Z,0.00
2019-05-15T01:59:18.959Z,0.00
2019-05-15T02:00:18.864Z,0.00
2019-05-15T02:01:19.098Z,0.00
2019-05-15T02:02:18.724Z,0.00
2019-05-15T02:03:18.519Z,0.00
2019-05-15T02:04:19.664Z,0.00
2019-05-15T02:05:18.803Z,0.00
2019-05-15T02:06:18.949Z,0.00
2019-05-15T02:07:18.696Z,0.00
2019-05-15T02:08:19.152Z,0.00
2019-05-15T02:09:18.605Z,0.00
2019-05-15T02:10:18.670Z,0.00
2019-05-15T02:11:18.172Z,0.00
2019-05-15T02:12:19.146Z,0.00
2019-05-15T02:13:18.665Z,0.00
2019-05-15T02:14:18.963Z,0.00
2019-05-15T02:15:19.041Z,0.00
2019-05-15T02:16:19.200Z,0.00
2019-05-15T02:17:18.962Z,0.00
2019-05-15T02:18:19.215Z,0.00
2019-05-15T02:19:19.415Z,0.00
2019-05-15T02:20:18.735Z,0.00
2019-05-15T02:21:18.401Z,0.00
2019-05-15T02:22:18.934Z,0.00
2019-05-15T02:23:18.904Z,0.00
2019-05-15T02:24:18.850Z,0.00
2019-05-15T02:25:18.519Z,0.00
2019-05-15T02:26:18.878Z,0.00
2019-05-15T02:27:18.685Z,0.00
2019-05-15T02:28:18.384Z,0.00
2019-05-15T02:29:24.228Z,0.00
2019-05-15T02:30:28.442Z,0.00
2019-05-15T02:31:19.817Z,0.00
2019-05-15T02:32:19.316Z,0.00
2019-05-15T02:33:18.897Z,0.00
2019-05-15T02:34:19.458Z,0.00
2019-05-15T02:35:18.538Z,0.00
2019-05-15T02:36:20.529Z,0.00
2019-05-15T02:37:19.236Z,0.00
2019-05-15T02:38:19.931Z,0.00
2019-05-15T02:39:18.998Z,0.00
2019-05-15T02:40:19.101Z,0.00
2019-05-15T02:41:19.547Z,0.00
2019-05-15T02:42:19.214Z,0.00
2019-05-15T02:43:19.001Z,0.00
2019-05-15T02:44:19.851Z,0.00
2019-05-15T02:45:19.563Z,0.00
2019-05-15T02:46:19.445Z,0.00
2019-05-15T02:47:19.893Z,0.00
2019-05-15T02:48:19.944Z,0.00
2019-05-15T02:49:19.163Z,0.00
2019-05-15T02:50:20.381Z,0.00
2019-05-15T02:51:19.408Z,0.00
2019-05-15T02:52:19.925Z,0.00
2019-05-15T02:53:19.008Z,0.00
2019-05-15T02:54:19.574Z,0.00
2019-05-15T02:55:19.740Z,0.00
2019-05-15T02:56:20.257Z,0.00
2019-05-15T02:57:19.203Z,0.00
2019-05-15T02:58:21.229Z,0.00
2019-05-15T02:59:19.423Z,0.00
2019-05-15T03:00:36.698Z,0.00
2019-05-15T03:01:19.112Z,0.00
2019-05-15T03:02:19.097Z,0.00
2019-05-15T03:03:20.141Z,5.62
2019-05-15T03:04:19.971Z,5.62
2019-05-15T03:05:19.593Z,5.62
2019-05-15T03:06:19.232Z,5.62
2019-05-15T03:07:19.263Z,5.62
2019-05-15T03:08:19.557Z,5.62
2019-05-15T03:09:18.762Z,5.62
2019-05-15T03:10:20.013Z,11.25
2019-05-15T03:11:18.929Z,11.25
2019-05-15T03:12:19.615Z,11.25
2019-05-15T03:13:18.889Z,11.25
2019-05-15T03:14:17.298Z,11.25
2019-05-15T03:15:19.439Z,11.25
2019-05-15T03:16:19.458Z,16.88
2019-05-15T03:17:19.069Z,16.88
2019-05-15T03:18:19.375Z,16.88
2019-05-15T03:19:19.335Z,16.88
2019-05-15T03:20:18.619Z,16.88
2019-05-15T03:21:18.759Z,22.50
2019-05-15T03:22:19.534Z,22.50
2019-05-15T03:23:19.841Z,22.50
2019-05-15T03:24:19.437Z,22.50
2019-05-15T03:25:19.160Z,28.12
2019-05-15T03:26:19.721Z,28.12
2019-05-15T03:27:19.716Z,28.12
2019-05-15T03:28:19.051Z,28.12
2019-05-15T03:29:17.134Z,28.12
2019-05-15T03:30:21.849Z,33.75
2019-05-15T03:31:40.608Z,33.75
2019-05-15T03:32:32.697Z,33.75
2019-05-15T03:33:26.622Z,39.38
2019-05-15T03:34:23.119Z,39.38
2019-05-15T03:35:22.566Z,39.38
2019-05-15T03:36:23.065Z,45.00
2019-05-15T03:37:22.346Z,45.00
2019-05-15T03:38:19.344Z,50.62
2019-05-15T03:39:19.025Z,50.62
2019-05-15T03:40:19.257Z,56.25
2019-05-15T03:41:19.493Z,61.88
2019-05-15T03:42:19.082Z,61.88
2019-05-15T03:43:18.561Z,67.50
2019-05-15T03:44:19.636Z,67.50
2019-05-15T03:45:19.258Z,67.50
2019-05-15T03:46:19.983Z,67.50
2019-05-15T03:47:19.421Z,73.12
2019-05-15T03:48:19.439Z,73.12
2019-05-15T03:49:19.684Z,73.12
2019-05-15T03:50:19.461Z,78.75
2019-05-15T03:51:19.750Z,78.75
2019-05-15T03:52:19.107Z,78.75
2019-05-15T03:53:19.186Z,84.38
2019-05-15T03:54:18.943Z,84.38
2019-05-15T03:55:18.710Z,90.00
2019-05-15T03:56:19.104Z,90.00
2019-05-15T03:57:20.080Z,95.62
2019-05-15T03:58:21.475Z,95.62
2019-05-15T03:59:19.286Z,101.25
2019-05-15T04:00:19.537Z,101.25
2019-05-15T04:01:30.144Z,106.88
2019-05-15T04:02:19.423Z,106.88
2019-05-15T04:03:19.932Z,112.50
2019-05-15T04:04:18.928Z,112.50
2019-05-15T04:05:19.669Z,112.50
2019-05-15T04:06:19.324Z,112.50
2019-05-15T04:07:18.849Z,112.50
2019-05-15T04:08:19.518Z,112.50
2019-05-15T04:09:18.936Z,112.50
2019-05-15T04:10:19.772Z,112.50
2019-05-15T04:11:20.032Z,118.12
2019-05-15T04:12:19.433Z,118.12
2019-05-15T04:13:19.574Z,123.75
2019-05-15T04:14:19.394Z,123.75
2019-05-15T04:15:18.697Z,129.38
2019-05-15T04:16:19.176Z,135.00
2019-05-15T04:17:19.542Z,135.00
2019-05-15T04:18:19.680Z,140.62
2019-05-15T04:19:19.143Z,140.62
2019-05-15T04:20:19.872Z,146.25
2019-05-15T04:21:19.673Z,146.25
2019-05-15T04:22:19.506Z,151.88
2019-05-15T04:23:19.099Z,151.88
2019-05-15T04:24:19.033Z,157.50
2019-05-15T04:25:19.150Z,157.50
2019-05-15T04:26:19.261Z,163.12
2019-05-15T04:27:19.558Z,163.12
2019-05-15T04:28:19.289Z,163.12
2019-05-15T04:29:19.324Z,168.75
2019-05-15T04:30:19.046Z,168.75
2019-05-15T04:31:19.191Z,174.38
2019-05-15T04:32:19.790Z,180.00
2019-05-15T04:33:19.677Z,185.62
2019-05-15T04:34:19.275Z,191.25
2019-05-15T04:35:19.565Z,191.25
2019-05-15T04:36:19.191Z,196.88
2019-05-15T04:37:18.915Z,202.50
2019-05-15T04:38:19.320Z,208.12
2019-05-15T04:39:19.108Z,213.75
2019-05-15T04:40:19.168Z,219.38
2019-05-15T04:41:19.472Z,225.00
2019-05-15T04:42:16.336Z,230.62
2019-05-15T04:43:19.217Z,230.62
2019-05-15T04:44:19.145Z,236.25
2019-05-15T04:45:19.193Z,236.25
2019-05-15T04:46:19.336Z,236.25
2019-05-15T04:47:19.012Z,236.25
2019-05-15T04:48:19.729Z,236.25
2019-05-15T04:49:19.065Z,236.25
2019-05-15T04:50:19.132Z,236.25
2019-05-15T04:51:18.912Z,230.62
2019-05-15T04:52:19.327Z,230.62
2019-05-15T04:53:19.071Z,225.00
2019-05-15T04:54:16.201Z,225.00
2019-05-15T04:55:19.451Z,219.38
2019-05-15T04:56:19.062Z,219.38
2019-05-15T04:57:19.168Z,225.00
2019-05-15T04:58:20.345Z,230.62
2019-05-15T04:59:19.270Z,225.00
2019-05-15T05:00:16.137Z,230.62
2019-05-15T05:01:19.691Z,236.25
2019-05-15T05:02:25.537Z,241.88
2019-05-15T05:03:20.016Z,247.50
2019-05-15T05:04:18.733Z,253.12
2019-05-15T05:05:18.815Z,258.75
2019-05-15T05:06:18.814Z,258.75
2019-05-15T05:07:18.706Z,264.38
2019-05-15T05:08:16.048Z,270.00
2019-05-15T05:09:16.036Z,275.62
2019-05-15T05:10:16.020Z,281.25
2019-05-15T05:11:16.017Z,286.88
2019-05-15T05:12:16.000Z,292.50
2019-05-15T05:13:19.409Z,298.12
2019-05-15T05:14:18.665Z,309.38
2019-05-15T05:15:18.835Z,320.62
2019-05-15T05:16:18.875Z,331.88
2019-05-15T05:17:15.953Z,331.88
2019-05-15T05:18:18.768Z,337.50
2019-05-15T05:19:15.942Z,337.50
2019-05-15T05:20:17.851Z,348.75
2019-05-15T05:21:18.267Z,348.75
2019-05-15T05:22:15.894Z,360.00
2019-05-15T05:23:15.872Z,354.38
2019-05-15T05:24:15.862Z,360.00
2019-05-15T05:25:18.201Z,365.62
2019-05-15T05:26:18.334Z,371.25
2019-05-15T05:27:18.113Z,376.88
2019-05-15T05:28:17.986Z,382.50
2019-05-15T05:29:17.753Z,405.00
2019-05-15T05:30:15.800Z,416.25
2019-05-15T05:31:15.792Z,433.12
2019-05-15T05:32:28.853Z,450.00
2019-05-15T05:33:17.908Z,461.25
2019-05-15T05:34:16.076Z,478.12
2019-05-15T05:35:15.748Z,489.38
2019-05-15T05:36:15.732Z,500.62
2019-05-15T05:37:15.731Z,506.25
2019-05-15T05:38:15.713Z,511.88
2019-05-15T05:39:17.664Z,511.88
2019-05-15T05:40:15.690Z,517.50
2019-05-15T05:41:15.680Z,517.50
2019-05-15T05:42:15.683Z,517.50
2019-05-15T05:43:15.650Z,523.12
2019-05-15T05:44:15.645Z,528.75
2019-05-15T05:45:18.050Z,540.00
2019-05-15T05:46:15.618Z,551.25
2019-05-15T05:47:15.624Z,556.88
2019-05-15T05:48:15.601Z,562.50
2019-05-15T05:49:15.587Z,568.12
2019-05-15T05:50:18.195Z,562.50
2019-05-15T05:51:15.567Z,562.50
2019-05-15T05:52:15.604Z,556.88
2019-05-15T05:53:15.545Z,556.88
2019-05-15T05:54:17.967Z,551.25
2019-05-15T05:55:17.783Z,551.25
2019-05-15T05:56:17.946Z,556.88
2019-05-15T05:57:15.500Z,556.88
2019-05-15T05:58:15.501Z,556.88
2019-05-15T05:59:15.481Z,562.50
2019-05-15T06:00:18.069Z,573.75
2019-05-15T06:01:15.459Z,568.12
2019-05-15T06:02:15.455Z,573.75
2019-05-15T06:03:15.433Z,579.38
2019-05-15T06:04:15.441Z,585.00
2019-05-15T06:05:15.463Z,590.62
2019-05-15T06:06:15.401Z,601.88
2019-05-15T06:07:15.396Z,613.12
2019-05-15T06:08:15.375Z,624.38
2019-05-15T06:09:15.376Z,635.62
2019-05-15T06:10:15.352Z,646.88
2019-05-15T06:11:15.339Z,652.50
2019-05-15T06:12:15.335Z,663.75
2019-05-15T06:13:15.320Z,669.38
2019-05-15T06:14:15.321Z,680.62
2019-05-15T06:15:15.301Z,680.62
2019-05-15T06:16:15.289Z,691.88
2019-05-15T06:17:15.281Z,697.50
2019-05-15T06:18:15.270Z,697.50
2019-05-15T06:19:15.259Z,697.50
2019-05-15T06:20:15.248Z,703.12
2019-05-15T06:21:15.232Z,708.75
2019-05-15T06:22:15.221Z,720.00
2019-05-15T06:23:15.226Z,731.25
2019-05-15T06:24:15.200Z,736.88
2019-05-15T06:25:15.192Z,742.50
2019-05-15T06:26:15.199Z,753.75
2019-05-15T06:27:15.169Z,748.12
2019-05-15T06:28:15.152Z,742.50
2019-05-15T06:29:15.143Z,720.00
2019-05-15T06:30:26.024Z,691.88
2019-05-15T06:31:16.166Z,652.50
2019-05-15T06:32:15.115Z,613.12
2019-05-15T06:33:15.104Z,562.50
2019-05-15T06:34:15.091Z,528.75
2019-05-15T06:35:15.081Z,489.38
2019-05-15T06:36:15.070Z,444.38
2019-05-15T06:37:15.063Z,416.25
2019-05-15T06:38:15.048Z,388.12
2019-05-15T06:39:15.029Z,371.25
2019-05-15T06:40:15.019Z,365.62
2019-05-15T06:41:15.025Z,360.00
2019-05-15T06:42:15.006Z,354.38
2019-05-15T06:43:14.991Z,348.75
2019-05-15T06:44:14.981Z,343.12
2019-05-15T06:45:14.965Z,365.62
2019-05-15T06:46:14.961Z,388.12
2019-05-15T06:47:14.960Z,421.88
2019-05-15T06:48:14.931Z,444.38
2019-05-15T06:49:14.933Z,478.12
2019-05-15T06:50:14.910Z,511.88
2019-05-15T06:51:14.906Z,551.25
2019-05-15T06:52:14.900Z,601.88
2019-05-15T06:53:14.937Z,658.12
2019-05-15T06:54:14.887Z,691.88
2019-05-15T06:55:14.856Z,725.62
2019-05-15T06:56:14.847Z,742.50
2019-05-15T06:57:14.841Z,748.12
2019-05-15T06:58:14.837Z,759.38
2019-05-15T06:59:14.830Z,776.25
2019-05-15T07:00:14.800Z,804.38
2019-05-15T07:01:14.790Z,832.50
2019-05-15T07:02:14.785Z,883.12
2019-05-15T07:03:21.687Z,900.00
2019-05-15T07:04:18.026Z,945.00
2019-05-15T07:05:14.741Z,956.25
2019-05-15T07:06:14.742Z,967.50
2019-05-15T07:07:14.725Z,973.12
2019-05-15T07:08:14.709Z,961.88
2019-05-15T07:09:14.706Z,939.38
2019-05-15T07:10:14.693Z,916.88
2019-05-15T07:11:14.680Z,883.12
2019-05-15T07:12:14.663Z,843.75
2019-05-15T07:13:14.654Z,776.25
2019-05-15T07:14:14.652Z,720.00
2019-05-15T07:15:14.630Z,675.00
2019-05-15T07:16:14.623Z,630.00
2019-05-15T07:17:14.628Z,607.50
2019-05-15T07:18:14.602Z,579.38
2019-05-15T07:19:14.594Z,551.25
2019-05-15T07:20:14.582Z,517.50
2019-05-15T07:21:17.481Z,495.00
2019-05-15T07:22:18.105Z,489.38
2019-05-15T07:23:14.546Z,489.38
2019-05-15T07:24:14.543Z,495.00
2019-05-15T07:25:14.520Z,495.00
2019-05-15T07:26:14.508Z,495.00
2019-05-15T07:27:14.506Z,495.00
2019-05-15T07:28:14.493Z,489.38
2019-05-15T07:29:14.474Z,478.12
2019-05-15T07:30:14.482Z,466.88
2019-05-15T07:31:14.452Z,444.38
2019-05-15T07:32:14.455Z,438.75
2019-05-15T07:33:14.431Z,438.75
2019-05-15T07:34:14.419Z,444.38
2019-05-15T07:35:14.417Z,466.88
2019-05-15T07:36:14.406Z,472.50
2019-05-15T07:37:14.399Z,506.25
2019-05-15T07:38:14.380Z,523.12
2019-05-15T07:39:14.364Z,534.38
2019-05-15T07:40:14.356Z,545.62
2019-05-15T07:41:14.339Z,568.12
2019-05-15T07:42:14.358Z,601.88
2019-05-15T07:43:14.323Z,635.62
2019-05-15T07:44:14.310Z,669.38
2019-05-15T07:45:14.301Z,714.38
2019-05-15T07:46:14.290Z,776.25
2019-05-15T07:47:14.272Z,838.12
2019-05-15T07:48:14.280Z,916.88
2019-05-15T07:49:14.252Z,961.88
2019-05-15T07:50:14.246Z,1001.25
2019-05-15T07:51:14.231Z,1023.75
2019-05-15T07:52:14.221Z,1051.88
2019-05-15T07:53:14.239Z,1040.62
2019-05-15T07:54:14.194Z,1012.50
2019-05-15T07:55:14.182Z,1040.62
2019-05-15T07:56:14.171Z,1074.38
2019-05-15T07:57:14.169Z,1113.75
2019-05-15T07:58:14.190Z,1141.88
2019-05-15T07:59:14.146Z,1164.38
2019-05-15T08:00:14.131Z,1198.12
2019-05-15T08:01:14.123Z,1231.88
2019-05-15T08:02:14.110Z,1248.75
2019-05-15T08:03:14.157Z,1254.38
2019-05-15T08:04:25.037Z,1226.25
2019-05-15T08:05:15.072Z,1220.62
2019-05-15T08:06:14.066Z,1215.00
2019-05-15T08:07:14.054Z,1181.25
2019-05-15T08:08:14.045Z,1198.12
2019-05-15T08:09:14.033Z,1164.38
2019-05-15T08:10:14.036Z,1085.62
2019-05-15T08:11:20.858Z,1051.88
2019-05-15T08:12:15.000Z,1018.12
2019-05-15T08:13:13.984Z,967.50
2019-05-15T08:14:13.983Z,911.25
2019-05-15T08:15:13.968Z,900.00
2019-05-15T08:16:13.969Z,911.25
2019-05-15T08:17:13.941Z,933.75
2019-05-15T08:18:13.935Z,1001.25
2019-05-15T08:19:13.950Z,1068.75
2019-05-15T08:20:13.915Z,1164.38
2019-05-15T08:21:13.902Z,1254.38
2019-05-15T08:22:15.178Z,1389.38
2019-05-15T08:23:13.893Z,1541.25
2019-05-15T08:24:13.870Z,1535.62
2019-05-15T08:25:30.063Z,1563.75
2019-05-15T08:26:14.846Z,1698.75
2019-05-15T08:27:13.835Z,1974.38
2019-05-15T08:28:13.825Z,1890.00
2019-05-15T08:29:13.820Z,1760.62
2019-05-15T08:30:13.816Z,1631.25
2019-05-15T08:31:13.791Z,1445.62
2019-05-15T08:32:13.772Z,1366.88
2019-05-15T08:33:13.777Z,1338.75
2019-05-15T08:34:16.412Z,1327.50
2019-05-15T08:35:13.750Z,1327.50
2019-05-15T08:36:13.731Z,1260.00
2019-05-15T08:37:13.731Z,1203.75
2019-05-15T08:38:14.279Z,1215.00
2019-05-15T08:39:13.700Z,1226.25
2019-05-15T08:40:13.688Z,1243.12
2019-05-15T08:41:15.583Z,1237.50
2019-05-15T08:42:13.674Z,1293.75
2019-05-15T08:43:13.654Z,1282.50
2019-05-15T08:44:13.641Z,1310.62
2019-05-15T08:45:13.624Z,1350.00
2019-05-15T08:46:13.615Z,1378.12
2019-05-15T08:47:13.616Z,1434.38
2019-05-15T08:48:13.600Z,1440.00
2019-05-15T08:49:13.579Z,1434.38
2019-05-15T08:50:13.575Z,1411.88
2019-05-15T08:51:13.558Z,1310.62
2019-05-15T08:52:13.592Z,1209.38
2019-05-15T08:53:13.540Z,1260.00
2019-05-15T08:54:13.529Z,1310.62
2019-05-15T08:55:13.513Z,1428.75
2019-05-15T08:56:14.851Z,1417.50
2019-05-15T08:57:13.497Z,1355.62
2019-05-15T08:58:14.199Z,1231.88
2019-05-15T08:59:13.475Z,1260.00
2019-05-15T09:00:13.459Z,1288.12
2019-05-15T09:01:13.449Z,1597.50
2019-05-15T09:02:13.448Z,1963.12
2019-05-15T09:03:13.438Z,2041.88
2019-05-15T09:04:26.643Z,2053.12
2019-05-15T09:05:14.399Z,2677.50
2019-05-15T09:06:13.394Z,3155.62
2019-05-15T09:07:13.376Z,3346.88
2019-05-15T09:08:13.366Z,3150.00
2019-05-15T09:09:13.367Z,2953.12
2019-05-15T09:10:13.358Z,2379.38
2019-05-15T09:11:13.337Z,2238.75
2019-05-15T09:12:13.322Z,2008.12
2019-05-15T09:13:13.312Z,1867.50
2019-05-15T09:14:13.318Z,1276.88
2019-05-15T09:15:13.287Z,1350.00
2019-05-15T09:16:13.285Z,1974.38
2019-05-15T09:17:13.264Z,2160.00
2019-05-15T09:18:16.243Z,2227.50
2019-05-15T09:19:13.247Z,3065.62
2019-05-15T09:20:13.247Z,2801.25
2019-05-15T09:21:13.226Z,2874.38
2019-05-15T09:22:13.220Z,2722.50
2019-05-15T09:23:13.259Z,2638.12
2019-05-15T09:24:13.187Z,2677.50
2019-05-15T09:25:13.183Z,2216.25
2019-05-15T09:26:13.178Z,1541.25
2019-05-15T09:27:13.158Z,1417.50
2019-05-15T09:28:13.141Z,1395.00
2019-05-15T09:29:13.191Z,1406.25
2019-05-15T09:30:13.126Z,1321.88
2019-05-15T09:31:13.117Z,1271.25
2019-05-15T09:32:13.105Z,1293.75
2019-05-15T09:33:13.094Z,1350.00
2019-05-15T09:34:13.179Z,1417.50
2019-05-15T09:35:13.068Z,1603.12
2019-05-15T09:36:13.061Z,1524.38
2019-05-15T09:37:13.047Z,1501.88
2019-05-15T09:38:13.029Z,1530.00
2019-05-15T09:39:13.560Z,1642.50
2019-05-15T09:40:13.027Z,1625.62
2019-05-15T09:41:13.018Z,1513.12
2019-05-15T09:42:12.990Z,1788.75
2019-05-15T09:43:12.979Z,1670.62
2019-05-15T09:44:12.969Z,1350.00
2019-05-15T09:45:12.959Z,1355.62
2019-05-15T09:46:12.966Z,1327.50
2019-05-15T09:47:12.934Z,1310.62
2019-05-15T09:48:14.749Z,1288.12
2019-05-15T09:49:12.908Z,1310.62
2019-05-15T09:50:12.897Z,1361.25
2019-05-15T09:51:12.904Z,1428.75
2019-05-15T09:52:12.878Z,1575.00
2019-05-15T09:53:12.878Z,1704.38
2019-05-15T09:54:12.862Z,2373.75
2019-05-15T09:55:12.844Z,4179.38
2019-05-15T09:56:12.842Z,3240.00
2019-05-15T09:57:12.825Z,2508.75
2019-05-15T09:58:12.809Z,2053.12
2019-05-15T09:59:12.801Z,1957.50
2019-05-15T10:00:12.792Z,1929.38
2019-05-15T10:01:12.798Z,1901.25
2019-05-15T10:02:12.779Z,1861.88
2019-05-15T10:03:12.761Z,1828.12
2019-05-15T10:04:12.740Z,1771.88
2019-05-15T10:05:12.734Z,1732.50
2019-05-15T10:06:12.730Z,1687.50
2019-05-15T10:07:12.736Z,1659.38
2019-05-15T10:08:12.708Z,1670.62
2019-05-15T10:09:12.684Z,1665.00
2019-05-15T10:10:12.673Z,1670.62
2019-05-15T10:11:12.668Z,1653.75
2019-05-15T10:12:12.667Z,1631.25
2019-05-15T10:13:12.660Z,1614.38
2019-05-15T10:14:12.634Z,1625.62
2019-05-15T10:15:12.615Z,1721.25
2019-05-15T10:16:12.605Z,1861.88
2019-05-15T10:17:12.623Z,1884.38
2019-05-15T10:18:12.596Z,1856.25
2019-05-15T10:19:12.573Z,1794.38
2019-05-15T10:20:12.593Z,1755.00
2019-05-15T10:21:12.556Z,1749.38
2019-05-15T10:22:12.556Z,1738.12
2019-05-15T10:23:12.623Z,1726.88
2019-05-15T10:24:12.519Z,1681.88
2019-05-15T10:25:12.520Z,1597.50
2019-05-15T10:26:14.189Z,1490.62
2019-05-15T10:27:12.492Z,1389.38
2019-05-15T10:28:15.200Z,1282.50
2019-05-15T10:29:12.470Z,1198.12
2019-05-15T10:30:12.482Z,1164.38
2019-05-15T10:31:12.467Z,1164.38
2019-05-15T10:32:12.428Z,1186.88
2019-05-15T10:33:12.424Z,1226.25
2019-05-15T10:34:12.428Z,1237.50
2019-05-15T10:35:28.101Z,1265.62
2019-05-15T10:36:13.385Z,1293.75
2019-05-15T10:37:12.373Z,1316.25
2019-05-15T10:38:12.364Z,1288.12
2019-05-15T10:39:12.482Z,1288.12
2019-05-15T10:40:12.368Z,1243.12
2019-05-15T10:41:15.111Z,1226.25
2019-05-15T10:42:12.318Z,1209.38
2019-05-15T10:43:12.314Z,1198.12
2019-05-15T10:44:12.303Z,1170.00
2019-05-15T10:45:12.299Z,1102.50
2019-05-15T10:46:13.672Z,1051.88
2019-05-15T10:47:12.261Z,1001.25
2019-05-15T10:48:12.259Z,967.50
2019-05-15T10:49:12.249Z,939.38
2019-05-15T10:50:12.241Z,922.50
2019-05-15T10:51:12.225Z,900.00
2019-05-15T10:52:12.213Z,877.50
2019-05-15T10:53:12.198Z,866.25
2019-05-15T10:54:12.189Z,860.62
2019-05-15T10:55:12.204Z,866.25
2019-05-15T10:56:12.171Z,877.50
2019-05-15T10:57:12.148Z,877.50
2019-05-15T10:58:14.124Z,871.88
2019-05-15T10:59:12.131Z,866.25
2019-05-15T11:00:12.122Z,871.88
2019-05-15T11:01:12.112Z,871.88
2019-05-15T11:02:12.103Z,866.25
2019-05-15T11:03:12.091Z,866.25
2019-05-15T11:04:12.069Z,871.88
2019-05-15T11:05:12.074Z,871.88
2019-05-15T11:06:12.060Z,866.25
2019-05-15T11:07:12.045Z,855.00
2019-05-15T11:08:12.026Z,832.50
2019-05-15T11:09:12.013Z,815.62
2019-05-15T11:10:12.003Z,815.62
2019-05-15T11:11:12.017Z,826.88
2019-05-15T11:12:11.991Z,843.75
2019-05-15T11:13:11.980Z,855.00
2019-05-15T11:14:11.959Z,871.88
2019-05-15T11:15:11.950Z,866.25
2019-05-15T11:16:11.944Z,877.50
2019-05-15T11:17:11.963Z,916.88
2019-05-15T11:18:11.964Z,956.25
2019-05-15T11:19:11.907Z,984.38
2019-05-15T11:20:11.895Z,1018.12
2019-05-15T11:21:11.876Z,1068.75
2019-05-15T11:22:11.867Z,1119.38
2019-05-15T11:23:11.869Z,1147.50
2019-05-15T11:24:11.843Z,1147.50
2019-05-15T11:25:11.855Z,1119.38
2019-05-15T11:26:11.820Z,1063.12
2019-05-15T11:27:11.816Z,1029.38
2019-05-15T11:28:11.802Z,1006.88
2019-05-15T11:29:11.789Z,973.12
2019-05-15T11:30:11.777Z,956.25
2019-05-15T11:31:11.779Z,933.75
2019-05-15T11:32:11.773Z,922.50
2019-05-15T11:33:11.738Z,916.88
2019-05-15T11:34:11.733Z,916.88
2019-05-15T11:35:11.719Z,928.12
2019-05-15T11:36:11.725Z,933.75
2019-05-15T11:37:11.699Z,928.12
2019-05-15T11:38:11.696Z,933.75
2019-05-15T11:39:11.680Z,939.38
2019-05-15T11:40:11.659Z,956.25
2019-05-15T11:41:11.647Z,984.38
2019-05-15T11:42:11.639Z,1029.38
2019-05-15T11:43:11.627Z,1068.75
2019-05-15T11:44:11.620Z,1125.00
2019-05-15T11:45:11.601Z,1181.25
2019-05-15T11:46:11.637Z,1231.88
2019-05-15T11:47:11.579Z,1327.50
2019-05-15T11:48:11.575Z,1406.25
2019-05-15T11:49:11.562Z,1462.50
2019-05-15T11:50:11.547Z,1490.62
2019-05-15T11:51:11.557Z,1468.12
2019-05-15T11:52:11.532Z,1417.50
2019-05-15T11:53:11.527Z,1417.50
2019-05-15T11:54:11.509Z,1411.88
2019-05-15T11:55:11.489Z,1406.25
2019-05-15T11:56:11.482Z,1372.50
2019-05-15T11:57:11.480Z,1355.62
2019-05-15T11:58:11.461Z,1327.50
2019-05-15T11:59:11.532Z,1305.00
2019-05-15T12:00:17.175Z,1293.75
2019-05-15T12:01:12.429Z,1282.50
2019-05-15T12:02:11.436Z,1282.50
2019-05-15T12:03:11.403Z,1282.50
2019-05-15T12:04:26.425Z,1226.25
2019-05-15T12:05:12.375Z,1186.88
2019-05-15T12:06:18.513Z,1136.25
2019-05-15T12:07:12.362Z,1108.12
2019-05-15T12:08:12.665Z,1057.50
2019-05-15T12:09:11.337Z,1023.75
2019-05-15T12:10:11.338Z,1006.88
2019-05-15T12:11:26.983Z,1006.88
2019-05-15T12:12:12.299Z,1001.25
2019-05-15T12:13:11.288Z,1001.25
2019-05-15T12:14:11.281Z,1001.25
2019-05-15T12:15:11.284Z,990.00
2019-05-15T12:16:11.263Z,973.12
2019-05-15T12:17:15.334Z,967.50
2019-05-15T12:18:11.258Z,978.75
2019-05-15T12:19:17.162Z,995.62
2019-05-15T12:20:12.208Z,1023.75
2019-05-15T12:21:11.203Z,1035.00
2019-05-15T12:22:11.201Z,1029.38
2019-05-15T12:23:11.187Z,1029.38
2019-05-15T12:24:11.176Z,1018.12
2019-05-15T12:25:11.161Z,1018.12
2019-05-15T12:26:11.151Z,1012.50
2019-05-15T12:27:17.746Z,1018.12
2019-05-15T12:28:12.121Z,1040.62
2019-05-15T12:29:11.116Z,1085.62
2019-05-15T12:30:11.099Z,1136.25
2019-05-15T12:31:11.087Z,1192.50
2019-05-15T12:32:23.566Z,1260.00
2019-05-15T12:33:12.078Z,1305.00
2019-05-15T12:34:11.122Z,1344.38